Kittery Point, ME (03905)

5:52 PM EST on December 02, 2016 (GMT -0500)
KPV | | Change Station

Elev 40 ft 43.08 °N, 70.71 °W | Updated 1 minute ago

Mostly Cloudy
Mostly Cloudy
44.9 °F
Feels Like 45 °F
N
2.7
Wind Variable Wind from WNW
Gusts 5.7 mph

Today
High -- | Low -- °F
--% Chance of Precip.
Yesterday
High -- | Low -- °F
Precip. -- in
Pressure 29.70 in
Visibility 10.0 miles
Clouds Mostly Cloudy 6000 ft
Mostly Cloudy 12000 ft
Windchill 45 °F
Dew Point 33 °F
Humidity 62%
Rainfall Not available.
Snow Depth Not available.
6:56 AM 4:08 PM
Waxing Crescent, 11% visible
METAR KPSM 022158Z 25007KT 10SM BKN060 BKN120 08/00 A2969 RMK AO2A SLP057 T00761005 CHINO RWY16 $
Pressure 29.70 in
Visibility 10.0 miles
Clouds Mostly Cloudy 6000 ft
Mostly Cloudy 12000 ft
Windchill 45 °F
Dew Point 33 °F
Humidity 62%
Rainfall Not available.
Snow Depth Not available.
6:56 AM 4:08 PM
Waxing Crescent, 11% visible
METAR KPSM 022158Z 25007KT 10SM BKN060 BKN120 08/00 A2969 RMK AO2A SLP057 T00761005 CHINO RWY16 $

10-Day Weather Forecast

Almanac

Astronomy

Dec. 02, 2016 Rise Set
Actual Time
Civil Twilight
Nautical Twilight
Astronomical Twilight
Moon
Length of Visible Light
Length of Day
Tomorrow will be .
, % of the Moon is Illuminated

Today's Extremes

State Highs State Lows

Community

WunderPhotos

Upload Photos

1,955,368 photos uploaded!

WunderBlog® & News

Nearby

Air Quality

  Air Quality AQ Index Pollutant
Not available.

Snow Depth

Station Depth Elevation

Earthquake Activity

City Distance Mag. Time & Date
Minimum magnitude displayed is 2.5.

Coastal Water Temperatures

Place Temperature

Stations

Nearby Weather Stations

Station Location Temp. Windchill Dew Point Humidity Wind Precip. Elev Updated Type
                   

Watches & Warnings

There are currently no watches in effect.